sensor_id;sensor_type;location;lat;lon;timestamp;pressure;altitude;pressure_sealevel;temperature;humidity
82512;BME280;72152;65.012;25.464;2024-01-25T00:01:21;100285.67;;;-4.78;78.33
82512;BME280;72152;65.012;25.464;2024-01-25T00:04:26;100290.46;;;-4.82;78.06
82512;BME280;72152;65.012;25.464;2024-01-25T00:07:32;100298.83;;;-4.83;78.12
82512;BME280;72152;65.012;25.464;2024-01-25T00:10:39;100308.77;;;-4.83;77.89
82512;BME280;72152;65.012;25.464;2024-01-25T00:13:44;100312.27;;;-4.85;77.66
82512;BME280;72152;65.012;25.464;2024-01-25T00:16:53;100323.33;;;-4.90;77.63
82512;BME280;72152;65.012;25.464;2024-01-25T00:19:58;100332.35;;;-4.91;77.60
82512;BME280;72152;65.012;25.464;2024-01-25T00:23:09;100338.55;;;-4.91;77.67
82512;BME280;72152;65.012;25.464;2024-01-25T00:26:15;100340.14;;;-4.93;77.24
82512;BME280;72152;65.012;25.464;2024-01-25T00:29:22;100344.72;;;-4.97;77.24
82512;BME280;72152;65.012;25.464;2024-01-25T00:32:29;100351.77;;;-5.04;76.89
82512;BME280;72152;65.012;25.464;2024-01-25T00:35:33;100357.06;;;-5.11;76.83
82512;BME280;72152;65.012;25.464;2024-01-25T00:42:17;100367.13;;;-5.21;76.71
82512;BME280;72152;65.012;25.464;2024-01-25T00:45:31;100375.34;;;-5.24;76.62
82512;BME280;72152;65.012;25.464;2024-01-25T00:48:45;100379.39;;;-5.29;76.38
82512;BME280;72152;65.012;25.464;2024-01-25T00:51:50;100384.37;;;-5.29;76.50
82512;BME280;72152;65.012;25.464;2024-01-25T00:55:15;100396.13;;;-5.30;76.39
82512;BME280;72152;65.012;25.464;2024-01-25T00:58:34;100403.12;;;-5.37;76.32
82512;BME280;72152;65.012;25.464;2024-01-25T01:01:40;100411.59;;;-5.42;76.08
82512;BME280;72152;65.012;25.464;2024-01-25T01:05:00;100420.02;;;-5.48;76.08
82512;BME280;72152;65.012;25.464;2024-01-25T01:08:26;100419.54;;;-5.54;76.06
82512;BME280;72152;65.012;25.464;2024-01-25T01:11:32;100433.52;;;-5.61;75.71
82512;BME280;72152;65.012;25.464;2024-01-25T01:14:37;100437.50;;;-5.66;75.84
82512;BME280;72152;65.012;25.464;2024-01-25T01:17:43;100442.89;;;-5.65;75.91
82512;BME280;72152;65.012;25.464;2024-01-25T01:20:49;100444.85;;;-5.66;75.52
82512;BME280;72152;65.012;25.464;2024-01-25T01:24:00;100450.26;;;-5.68;75.63
82512;BME280;72152;65.012;25.464;2024-01-25T01:27:06;100454.79;;;-5.72;75.45
82512;BME280;72152;65.012;25.464;2024-01-25T01:30:13;100461.09;;;-5.79;75.23
82512;BME280;72152;65.012;25.464;2024-01-25T01:33:25;100464.58;;;-5.85;75.18
82512;BME280;72152;65.012;25.464;2024-01-25T01:36:33;100470.17;;;-5.85;75.17
82512;BME280;72152;65.012;25.464;2024-01-25T01:39:38;100478.48;;;-5.84;75.22
82512;BME280;72152;65.012;25.464;2024-01-25T01:42:45;100486.68;;;-5.85;75.23
82512;BME280;72152;65.012;25.464;2024-01-25T01:45:55;100492.02;;;-5.84;75.02
82512;BME280;72152;65.012;25.464;2024-01-25T01:49:06;100498.44;;;-5.82;75.01
82512;BME280;72152;65.012;25.464;2024-01-25T01:52:03;100510.66;;;-5.81;74.88
82512;BME280;72152;65.012;25.464;2024-01-25T01:55:15;100511.48;;;-5.85;74.71
82512;BME280;72152;65.012;25.464;2024-01-25T01:58:22;100523.89;;;-5.92;74.74
82512;BME280;72152;65.012;25.464;2024-01-25T02:01:31;100531.95;;;-5.98;74.56
82512;BME280;72152;65.012;25.464;2024-01-25T02:04:37;100536.84;;;-6.05;74.64
82512;BME280;72152;65.012;25.464;2024-01-25T02:07:43;100537.87;;;-6.08;74.59
82512;BME280;72152;65.012;25.464;2024-01-25T02:10:47;100546.67;;;-6.10;74.44
82512;BME280;72152;65.012;25.464;2024-01-25T02:13:55;100550.86;;;-6.14;74.26
82512;BME280;72152;65.012;25.464;2024-01-25T02:16:59;100559.64;;;-6.22;74.40
82512;BME280;72152;65.012;25.464;2024-01-25T02:20:00;100564.82;;;-6.30;74.32
82512;BME280;72152;65.012;25.464;2024-01-25T02:22:58;100574.23;;;-6.38;74.31
82512;BME280;72152;65.012;25.464;2024-01-25T02:26:10;100579.63;;;-6.37;74.51
82512;BME280;72152;65.012;25.464;2024-01-25T02:29:11;100584.77;;;-6.37;74.52
82512;BME280;72152;65.012;25.464;2024-01-25T02:32:22;100596.13;;;-6.41;74.44
82512;BME280;72152;65.012;25.464;2024-01-25T02:35:30;100604.79;;;-6.45;74.49
82512;BME280;72152;65.012;25.464;2024-01-25T02:38:36;100612.14;;;-6.51;74.12
82512;BME280;72152;65.012;25.464;2024-01-25T02:41:35;100618.98;;;-6.59;74.06
82512;BME280;72152;65.012;25.464;2024-01-25T02:44:42;100625.60;;;-6.65;73.89
82512;BME280;72152;65.012;25.464;2024-01-25T02:47:49;100631.09;;;-6.73;73.99
82512;BME280;72152;65.012;25.464;2024-01-25T02:50:57;100638.91;;;-6.76;73.98
82512;BME280;72152;65.012;25.464;2024-01-25T02:54:04;100642.86;;;-6.79;73.67
82512;BME280;72152;65.012;25.464;2024-01-25T02:57:14;100647.48;;;-6.81;73.69
82512;BME280;72152;65.012;25.464;2024-01-25T03:00:25;100651.72;;;-6.82;73.40
82512;BME280;72152;65.012;25.464;2024-01-25T03:03:38;100655.92;;;-6.86;73.48
82512;BME280;72152;65.012;25.464;2024-01-25T03:06:40;100660.83;;;-6.92;73.32
82512;BME280;72152;65.012;25.464;2024-01-25T03:09:37;100670.02;;;-6.98;73.42
82512;BME280;72152;65.012;25.464;2024-01-25T03:12:43;100681.21;;;-7.04;73.25
82512;BME280;72152;65.012;25.464;2024-01-25T03:15:47;100689.50;;;-7.11;73.22
82512;BME280;72152;65.012;25.464;2024-01-25T03:18:57;100697.59;;;-7.17;73.12
82512;BME280;72152;65.012;25.464;2024-01-25T03:22:03;100692.73;;;-7.27;72.81
82512;BME280;72152;65.012;25.464;2024-01-25T03:25:15;100697.52;;;-7.39;72.83
82512;BME280;72152;65.012;25.464;2024-01-25T03:28:17;100699.35;;;-7.47;72.80
82512;BME280;72152;65.012;25.464;2024-01-25T03:31:18;100708.58;;;-7.50;72.95
82512;BME280;72152;65.012;25.464;2024-01-25T03:34:25;100706.05;;;-7.44;72.81
82512;BME280;72152;65.012;25.464;2024-01-25T03:37:30;100708.91;;;-7.45;72.89
82512;BME280;72152;65.012;25.464;2024-01-25T03:40:39;100717.52;;;-7.43;72.77
82512;BME280;72152;65.012;25.464;2024-01-25T03:43:47;100721.95;;;-7.49;72.45
82512;BME280;72152;65.012;25.464;2024-01-25T03:46:55;100735.36;;;-7.53;72.49
82512;BME280;72152;65.012;25.464;2024-01-25T03:49:59;100742.06;;;-7.57;72.38
82512;BME280;72152;65.012;25.464;2024-01-25T03:53:04;100747.13;;;-7.66;72.18
82512;BME280;72152;65.012;25.464;2024-01-25T03:56:16;100748.47;;;-7.71;72.24
82512;BME280;72152;65.012;25.464;2024-01-25T03:59:25;100753.27;;;-7.70;72.33
82512;BME280;72152;65.012;25.464;2024-01-25T04:02:36;100766.28;;;-7.72;72.09
82512;BME280;72152;65.012;25.464;2024-01-25T04:05:41;100768.50;;;-7.83;71.72
82512;BME280;72152;65.012;25.464;2024-01-25T04:08:51;100774.46;;;-7.92;71.86
82512;BME280;72152;65.012;25.464;2024-01-25T04:11:59;100775.60;;;-7.98;71.89
82512;BME280;72152;65.012;25.464;2024-01-25T04:15:05;100775.94;;;-8.03;71.87
82512;BME280;72152;65.012;25.464;2024-01-25T04:18:06;100789.65;;;-8.05;71.83
82512;BME280;72152;65.012;25.464;2024-01-25T04:21:07;100791.88;;;-8.04;71.97
82512;BME280;72152;65.012;25.464;2024-01-25T04:24:14;100798.64;;;-8.08;71.77
82512;BME280;72152;65.012;25.464;2024-01-25T04:27:21;100804.12;;;-8.15;71.86
82512;BME280;72152;65.012;25.464;2024-01-25T04:30:24;100808.23;;;-8.17;71.81
82512;BME280;72152;65.012;25.464;2024-01-25T04:33:38;100820.17;;;-8.12;72.09
82512;BME280;72152;65.012;25.464;2024-01-25T04:36:45;100822.98;;;-8.04;71.79
82512;BME280;72152;65.012;25.464;2024-01-25T04:39:52;100832.05;;;-7.99;71.82
82512;BME280;72152;65.012;25.464;2024-01-25T04:42:59;100835.95;;;-7.97;71.88
82512;BME280;72152;65.012;25.464;2024-01-25T04:46:07;100838.54;;;-7.97;71.50
82512;BME280;72152;65.012;25.464;2024-01-25T04:49:13;100846.38;;;-8.04;71.06
82512;BME280;72152;65.012;25.464;2024-01-25T04:52:13;100853.23;;;-8.20;71.11
82512;BME280;72152;65.012;25.464;2024-01-25T04:55:21;100858.23;;;-8.34;70.92
82512;BME280;72152;65.012;25.464;2024-01-25T04:58:28;100862.97;;;-8.46;71.20
82512;BME280;72152;65.012;25.464;2024-01-25T05:01:34;100869.20;;;-8.56;71.13
82512;BME280;72152;65.012;25.464;2024-01-25T05:04:40;100875.81;;;-8.65;71.03
82512;BME280;72152;65.012;25.464;2024-01-25T05:07:46;100873.64;;;-8.74;71.14
82512;BME280;72152;65.012;25.464;2024-01-25T05:10:50;100873.77;;;-8.79;71.14
82512;BME280;72152;65.012;25.464;2024-01-25T05:13:57;100872.45;;;-8.83;71.29
82512;BME280;72152;65.012;25.464;2024-01-25T05:17:04;100878.61;;;-8.89;71.28
82512;BME280;72152;65.012;25.464;2024-01-25T05:20:16;100881.75;;;-8.93;71.17
82512;BME280;72152;65.012;25.464;2024-01-25T05:23:25;100889.82;;;-9.01;70.94
82512;BME280;72152;65.012;25.464;2024-01-25T05:26:28;100896.90;;;-9.11;70.91
82512;BME280;72152;65.012;25.464;2024-01-25T05:29:39;100905.28;;;-9.17;71.15
82512;BME280;72152;65.012;25.464;2024-01-25T05:32:43;100909.91;;;-9.23;70.93
82512;BME280;72152;65.012;25.464;2024-01-25T05:35:59;100917.78;;;-9.29;71.03
82512;BME280;72152;65.012;25.464;2024-01-25T05:39:02;100921.17;;;-9.36;70.97
82512;BME280;72152;65.012;25.464;2024-01-25T05:42:06;100928.39;;;-9.37;71.06
82512;BME280;72152;65.012;25.464;2024-01-25T05:45:17;100934.02;;;-9.42;71.07
82512;BME280;72152;65.012;25.464;2024-01-25T05:48:22;100944.40;;;-9.42;71.05
82512;BME280;72152;65.012;25.464;2024-01-25T05:51:33;100956.17;;;-9.44;70.78
82512;BME280;72152;65.012;25.464;2024-01-25T05:54:42;100968.67;;;-9.43;70.53
82512;BME280;72152;65.012;25.464;2024-01-25T05:57:43;100973.23;;;-9.50;70.37
82512;BME280;72152;65.012;25.464;2024-01-25T06:00:50;100977.59;;;-9.53;70.22
82512;BME280;72152;65.012;25.464;2024-01-25T06:03:53;100982.59;;;-9.56;69.95
82512;BME280;72152;65.012;25.464;2024-01-25T06:07:01;100986.07;;;-9.62;70.13
82512;BME280;72152;65.012;25.464;2024-01-25T06:10:05;100992.95;;;-9.63;69.93
82512;BME280;72152;65.012;25.464;2024-01-25T06:13:09;100999.97;;;-9.64;69.75
82512;BME280;72152;65.012;25.464;2024-01-25T06:16:11;101007.56;;;-9.65;69.84
82512;BME280;72152;65.012;25.464;2024-01-25T06:19:21;101011.38;;;-9.62;69.57
82512;BME280;72152;65.012;25.464;2024-01-25T06:22:28;101020.61;;;-9.66;69.13
82512;BME280;72152;65.012;25.464;2024-01-25T06:25:35;101028.37;;;-9.73;68.92
82512;BME280;72152;65.012;25.464;2024-01-25T06:28:41;101029.35;;;-9.80;68.87
82512;BME280;72152;65.012;25.464;2024-01-25T06:31:52;101035.20;;;-9.88;68.66
82512;BME280;72152;65.012;25.464;2024-01-25T06:35:07;101035.59;;;-9.97;68.67
82512;BME280;72152;65.012;25.464;2024-01-25T06:38:15;101046.77;;;-10.08;68.64
82512;BME280;72152;65.012;25.464;2024-01-25T06:41:28;101055.57;;;-10.11;68.87
82512;BME280;72152;65.012;25.464;2024-01-25T06:44:30;101065.54;;;-10.09;68.94
82512;BME280;72152;65.012;25.464;2024-01-25T06:47:35;101077.98;;;-10.15;68.64
82512;BME280;72152;65.012;25.464;2024-01-25T06:50:36;101082.23;;;-10.21;68.46
82512;BME280;72152;65.012;25.464;2024-01-25T06:53:43;101088.77;;;-10.27;68.62
82512;BME280;72152;65.012;25.464;2024-01-25T06:56:42;101095.90;;;-10.31;68.77
82512;BME280;72152;65.012;25.464;2024-01-25T06:59:44;101101.95;;;-10.34;68.42
82512;BME280;72152;65.012;25.464;2024-01-25T07:02:53;101109.57;;;-10.40;68.37
82512;BME280;72152;65.012;25.464;2024-01-25T07:05:57;101112.79;;;-10.46;68.52
82512;BME280;72152;65.012;25.464;2024-01-25T07:09:06;101118.70;;;-10.50;68.44
82512;BME280;72152;65.012;25.464;2024-01-25T07:12:13;101121.63;;;-10.60;68.22
82512;BME280;72152;65.012;25.464;2024-01-25T07:15:25;101125.63;;;-10.64;68.24
82512;BME280;72152;65.012;25.464;2024-01-25T07:18:38;101130.61;;;-10.68;68.44
82512;BME280;72152;65.012;25.464;2024-01-25T07:21:44;101134.58;;;-10.75;68.44
82512;BME280;72152;65.012;25.464;2024-01-25T07:24:47;101141.95;;;-10.76;68.66
82512;BME280;72152;65.012;25.464;2024-01-25T07:27:56;101156.36;;;-10.73;68.71
82512;BME280;72152;65.012;25.464;2024-01-25T07:30:58;101160.16;;;-10.66;68.71
82512;BME280;72152;65.012;25.464;2024-01-25T07:34:06;101162.53;;;-10.66;68.47
82512;BME280;72152;65.012;25.464;2024-01-25T07:37:12;101165.19;;;-10.61;68.29
82512;BME280;72152;65.012;25.464;2024-01-25T07:40:30;101162.73;;;-10.60;67.97
82512;BME280;72152;65.012;25.464;2024-01-25T07:43:34;101173.55;;;-10.65;68.03
82512;BME280;72152;65.012;25.464;2024-01-25T07:46:33;101180.08;;;-10.68;67.86
82512;BME280;72152;65.012;25.464;2024-01-25T07:49:35;101186.41;;;-10.69;67.66
82512;BME280;72152;65.012;25.464;2024-01-25T07:52:43;101186.89;;;-10.64;67.81
82512;BME280;72152;65.012;25.464;2024-01-25T07:55:47;101195.00;;;-10.57;67.57
82512;BME280;72152;65.012;25.464;2024-01-25T07:58:54;101195.34;;;-10.49;67.65
82512;BME280;72152;65.012;25.464;2024-01-25T08:02:00;101199.13;;;-10.44;67.27
82512;BME280;72152;65.012;25.464;2024-01-25T08:05:04;101206.23;;;-10.45;66.71
82512;BME280;72152;65.012;25.464;2024-01-25T08:08:12;101214.81;;;-10.48;66.52
82512;BME280;72152;65.012;25.464;2024-01-25T08:11:18;101218.84;;;-10.45;66.73
82512;BME280;72152;65.012;25.464;2024-01-25T08:14:28;101223.23;;;-10.45;66.43
82512;BME280;72152;65.012;25.464;2024-01-25T08:17:34;101233.35;;;-10.42;66.20
82512;BME280;72152;65.012;25.464;2024-01-25T08:20:43;101238.14;;;-10.44;66.18
82512;BME280;72152;65.012;25.464;2024-01-25T08:23:49;101242.55;;;-10.44;66.20
82512;BME280;72152;65.012;25.464;2024-01-25T08:26:56;101243.05;;;-10.48;66.03
82512;BME280;72152;65.012;25.464;2024-01-25T08:30:01;101247.89;;;-10.47;65.94
82512;BME280;72152;65.012;25.464;2024-01-25T08:33:05;101251.77;;;-10.47;65.95
82512;BME280;72152;65.012;25.464;2024-01-25T08:36:27;101259.79;;;-10.51;65.56
82512;BME280;72152;65.012;25.464;2024-01-25T08:39:37;101263.95;;;-10.56;65.84
82512;BME280;72152;65.012;25.464;2024-01-25T08:42:45;101267.11;;;-10.56;65.75
82512;BME280;72152;65.012;25.464;2024-01-25T08:45:47;101268.30;;;-10.58;65.82
82512;BME280;72152;65.012;25.464;2024-01-25T08:48:53;101269.94;;;-10.57;65.82
82512;BME280;72152;65.012;25.464;2024-01-25T08:51:59;101275.88;;;-10.51;66.03
82512;BME280;72152;65.012;25.464;2024-01-25T08:55:12;101280.39;;;-10.49;65.77
82512;BME280;72152;65.012;25.464;2024-01-25T08:58:18;101285.61;;;-10.44;65.64
82512;BME280;72152;65.012;25.464;2024-01-25T09:01:24;101286.65;;;-10.45;65.32
82512;BME280;72152;65.012;25.464;2024-01-25T09:04:31;101285.67;;;-10.47;65.27
82512;BME280;72152;65.012;25.464;2024-01-25T09:07:33;101297.42;;;-10.48;65.35
82512;BME280;72152;65.012;25.464;2024-01-25T09:10:45;101293.32;;;-10.43;65.38
82512;BME280;72152;65.012;25.464;2024-01-25T09:13:50;101301.10;;;-10.36;65.40
82512;BME280;72152;65.012;25.464;2024-01-25T09:16:56;101304.50;;;-10.36;65.11
82512;BME280;72152;65.012;25.464;2024-01-25T09:19:59;101309.17;;;-10.44;64.96
82512;BME280;72152;65.012;25.464;2024-01-25T09:23:01;101328.05;;;-10.46;64.95
82512;BME280;72152;65.012;25.464;2024-01-25T09:26:03;101334.23;;;-10.47;65.11
82512;BME280;72152;65.012;25.464;2024-01-25T09:29:08;101338.05;;;-10.45;65.18
82512;BME280;72152;65.012;25.464;2024-01-25T09:32:23;101337.36;;;-10.45;64.94
82512;BME280;72152;65.012;25.464;2024-01-25T09:35:31;101340.34;;;-10.49;64.75
82512;BME280;72152;65.012;25.464;2024-01-25T09:38:38;101344.70;;;-10.46;64.82
82512;BME280;72152;65.012;25.464;2024-01-25T09:41:47;101346.52;;;-10.45;65.02
82512;BME280;72152;65.012;25.464;2024-01-25T09:44:50;101349.95;;;-10.37;64.78
82512;BME280;72152;65.012;25.464;2024-01-25T09:48:00;101353.70;;;-10.35;64.45
82512;BME280;72152;65.012;25.464;2024-01-25T09:51:17;101355.58;;;-10.35;64.54
82512;BME280;72152;65.012;25.464;2024-01-25T09:54:19;101351.58;;;-10.34;64.39
82512;BME280;72152;65.012;25.464;2024-01-25T09:57:29;101356.83;;;-10.32;64.25
82512;BME280;72152;65.012;25.464;2024-01-25T10:00:37;101359.24;;;-10.32;63.99
82512;BME280;72152;65.012;25.464;2024-01-25T10:03:51;101361.42;;;-10.33;63.99
82512;BME280;72152;65.012;25.464;2024-01-25T10:06:48;101364.42;;;-10.35;64.09
82512;BME280;72152;65.012;25.464;2024-01-25T10:09:55;101369.74;;;-10.42;63.77
82512;BME280;72152;65.012;25.464;2024-01-25T10:13:01;101375.49;;;-10.57;63.75
82512;BME280;72152;65.012;25.464;2024-01-25T10:16:13;101368.69;;;-10.59;64.19
82512;BME280;72152;65.012;25.464;2024-01-25T10:19:26;101366.33;;;-10.61;63.86
82512;BME280;72152;65.012;25.464;2024-01-25T10:22:32;101365.07;;;-10.73;64.43
82512;BME280;72152;65.012;25.464;2024-01-25T10:25:34;101367.96;;;-10.71;64.74
82512;BME280;72152;65.012;25.464;2024-01-25T10:28:31;101372.59;;;-10.69;64.55
82512;BME280;72152;65.012;25.464;2024-01-25T10:31:35;101383.09;;;-10.71;64.80
82512;BME280;72152;65.012;25.464;2024-01-25T10:34:43;101386.06;;;-10.70;64.89
82512;BME280;72152;65.012;25.464;2024-01-25T10:37:51;101389.23;;;-10.65;64.78
82512;BME280;72152;65.012;25.464;2024-01-25T10:40:58;101396.02;;;-10.63;64.64
82512;BME280;72152;65.012;25.464;2024-01-25T10:44:05;101399.63;;;-10.58;64.74
82512;BME280;72152;65.012;25.464;2024-01-25T10:47:12;101402.54;;;-10.55;64.52
82512;BME280;72152;65.012;25.464;2024-01-25T10:50:22;101406.06;;;-10.52;64.75
82512;BME280;72152;65.012;25.464;2024-01-25T10:53:28;101416.11;;;-10.49;64.72
82512;BME280;72152;65.012;25.464;2024-01-25T10:56:35;101417.80;;;-10.45;64.72
82512;BME280;72152;65.012;25.464;2024-01-25T10:59:40;101421.99;;;-10.42;64.62
82512;BME280;72152;65.012;25.464;2024-01-25T11:02:47;101423.84;;;-10.38;64.86
82512;BME280;72152;65.012;25.464;2024-01-25T11:06:06;101427.80;;;-10.34;64.70
82512;BME280;72152;65.012;25.464;2024-01-25T11:09:23;101439.54;;;-10.30;64.58
82512;BME280;72152;65.012;25.464;2024-01-25T11:12:29;101441.24;;;-10.30;64.67
82512;BME280;72152;65.012;25.464;2024-01-25T11:15:35;101438.42;;;-10.26;64.71
82512;BME280;72152;65.012;25.464;2024-01-25T11:18:46;101436.45;;;-10.21;64.76
82512;BME280;72152;65.012;25.464;2024-01-25T11:21:55;101437.25;;;-10.16;64.54
82512;BME280;72152;65.012;25.464;2024-01-25T11:25:02;101445.95;;;-10.16;64.59
82512;BME280;72152;65.012;25.464;2024-01-25T11:28:15;101452.36;;;-10.15;64.79
82512;BME280;72152;65.012;25.464;2024-01-25T11:31:21;101459.81;;;-10.13;64.54
82512;BME280;72152;65.012;25.464;2024-01-25T11:34:25;101462.93;;;-10.14;64.24
82512;BME280;72152;65.012;25.464;2024-01-25T11:37:24;101473.77;;;-10.11;64.23
82512;BME280;72152;65.012;25.464;2024-01-25T11:40:31;101486.06;;;-10.14;63.94
82512;BME280;72152;65.012;25.464;2024-01-25T11:43:41;101488.95;;;-10.16;64.07
82512;BME280;72152;65.012;25.464;2024-01-25T11:46:47;101500.82;;;-10.15;63.84
82512;BME280;72152;65.012;25.464;2024-01-25T11:49:51;101506.75;;;-10.17;63.83
82512;BME280;72152;65.012;25.464;2024-01-25T11:53:02;101510.27;;;-10.17;63.93
82512;BME280;72152;65.012;25.464;2024-01-25T11:56:12;101514.99;;;-10.22;64.00
82512;BME280;72152;65.012;25.464;2024-01-25T11:59:22;101522.27;;;-10.26;63.69
82512;BME280;72152;65.012;25.464;2024-01-25T12:02:24;101523.48;;;-10.27;63.54
82512;BME280;72152;65.012;25.464;2024-01-25T12:05:26;101523.05;;;-10.30;63.68
82512;BME280;72152;65.012;25.464;2024-01-25T12:08:33;101526.48;;;-10.35;63.57
82512;BME280;72152;65.012;25.464;2024-01-25T12:11:36;101531.43;;;-10.43;63.62
82512;BME280;72152;65.012;25.464;2024-01-25T12:14:43;101541.52;;;-10.46;63.67
82512;BME280;72152;65.012;25.464;2024-01-25T12:17:48;101545.27;;;-10.45;63.72
82512;BME280;72152;65.012;25.464;2024-01-25T12:20:51;101551.21;;;-10.44;63.65
82512;BME280;72152;65.012;25.464;2024-01-25T12:23:57;101552.14;;;-10.50;63.47
82512;BME280;72152;65.012;25.464;2024-01-25T12:27:01;101547.89;;;-10.56;63.69
82512;BME280;72152;65.012;25.464;2024-01-25T12:30:05;101556.95;;;-10.64;63.70
82512;BME280;72152;65.012;25.464;2024-01-25T12:33:09;101559.11;;;-10.77;63.77
82512;BME280;72152;65.012;25.464;2024-01-25T12:36:14;101566.02;;;-10.90;63.80
82512;BME280;72152;65.012;25.464;2024-01-25T12:39:19;101571.95;;;-10.98;64.33
82512;BME280;72152;65.012;25.464;2024-01-25T12:42:26;101568.55;;;-10.96;64.37
82512;BME280;72152;65.012;25.464;2024-01-25T12:45:28;101577.39;;;-10.94;64.48
82512;BME280;72152;65.012;25.464;2024-01-25T12:48:34;101581.21;;;-10.95;64.49
82512;BME280;72152;65.012;25.464;2024-01-25T12:51:41;101589.86;;;-11.00;64.61
82512;BME280;72152;65.012;25.464;2024-01-25T12:54:43;101597.71;;;-11.00;64.49
82512;BME280;72152;65.012;25.464;2024-01-25T12:57:49;101601.30;;;-10.98;64.43
82512;BME280;72152;65.012;25.464;2024-01-25T13:00:56;101610.29;;;-11.00;64.24
82512;BME280;72152;65.012;25.464;2024-01-25T13:04:04;101611.40;;;-11.05;64.00
82512;BME280;72152;65.012;25.464;2024-01-25T13:07:20;101615.08;;;-11.16;63.97
82512;BME280;72152;65.012;25.464;2024-01-25T13:10:26;101622.13;;;-11.17;63.95
82512;BME280;72152;65.012;25.464;2024-01-25T13:13:38;101629.92;;;-11.17;64.28
82512;BME280;72152;65.012;25.464;2024-01-25T13:16:43;101629.70;;;-11.18;63.91
82512;BME280;72152;65.012;25.464;2024-01-25T13:19:51;101633.88;;;-11.20;64.01
82512;BME280;72152;65.012;25.464;2024-01-25T13:23:03;101635.60;;;-11.23;63.81
82512;BME280;72152;65.012;25.464;2024-01-25T13:26:01;101634.13;;;-11.30;63.96
82512;BME280;72152;65.012;25.464;2024-01-25T13:29:08;101630.47;;;-11.34;64.28
82512;BME280;72152;65.012;25.464;2024-01-25T13:32:14;101632.96;;;-11.35;64.32
82512;BME280;72152;65.012;25.464;2024-01-25T13:35:20;101640.27;;;-11.33;64.35
82512;BME280;72152;65.012;25.464;2024-01-25T13:38:34;101642.04;;;-11.32;64.36
82512;BME280;72152;65.012;25.464;2024-01-25T13:41:41;101643.57;;;-11.30;64.85
82512;BME280;72152;65.012;25.464;2024-01-25T13:44:48;101649.64;;;-11.33;64.97
82512;BME280;72152;65.012;25.464;2024-01-25T13:47:54;101659.18;;;-11.34;65.11
82512;BME280;72152;65.012;25.464;2024-01-25T13:51:02;101669.77;;;-11.40;64.89
82512;BME280;72152;65.012;25.464;2024-01-25T13:54:09;101675.95;;;-11.45;64.98
82512;BME280;72152;65.012;25.464;2024-01-25T13:57:13;101679.37;;;-11.50;64.86
82512;BME280;72152;65.012;25.464;2024-01-25T14:00:24;101681.21;;;-11.57;64.60
82512;BME280;72152;65.012;25.464;2024-01-25T14:03:28;101677.17;;;-11.61;64.64
82512;BME280;72152;65.012;25.464;2024-01-25T14:06:35;101676.38;;;-11.63;65.06
82512;BME280;72152;65.012;25.464;2024-01-25T14:09:39;101679.85;;;-11.64;64.83
82512;BME280;72152;65.012;25.464;2024-01-25T14:12:46;101684.39;;;-11.66;64.90
82512;BME280;72152;65.012;25.464;2024-01-25T14:15:56;101690.45;;;-11.72;65.04
82512;BME280;72152;65.012;25.464;2024-01-25T14:19:01;101689.52;;;-11.73;65.14
82512;BME280;72152;65.012;25.464;2024-01-25T14:22:00;101695.28;;;-11.73;64.81
82512;BME280;72152;65.012;25.464;2024-01-25T14:25:06;101697.31;;;-11.73;64.92
82512;BME280;72152;65.012;25.464;2024-01-25T14:28:20;101693.84;;;-11.75;64.94
82512;BME280;72152;65.012;25.464;2024-01-25T14:31:26;101693.48;;;-11.75;64.66
82512;BME280;72152;65.012;25.464;2024-01-25T14:34:28;101694.13;;;-11.74;64.67
82512;BME280;72152;65.012;25.464;2024-01-25T14:37:35;101694.85;;;-11.73;64.84
82512;BME280;72152;65.012;25.464;2024-01-25T14:40:43;101693.70;;;-11.73;64.75
82512;BME280;72152;65.012;25.464;2024-01-25T14:43:45;101695.08;;;-11.74;65.30
82512;BME280;72152;65.012;25.464;2024-01-25T14:46:53;101699.97;;;-11.73;65.28
82512;BME280;72152;65.012;25.464;2024-01-25T14:49:57;101700.41;;;-11.74;65.75
82512;BME280;72152;65.012;25.464;2024-01-25T14:53:04;101704.68;;;-11.72;65.46
82512;BME280;72152;65.012;25.464;2024-01-25T14:56:04;101704.17;;;-11.72;65.40
82512;BME280;72152;65.012;25.464;2024-01-25T14:59:08;101707.15;;;-11.67;65.79
82512;BME280;72152;65.012;25.464;2024-01-25T15:02:14;101704.00;;;-11.61;65.66
82512;BME280;72152;65.012;25.464;2024-01-25T15:05:27;101709.23;;;-11.55;65.64
82512;BME280;72152;65.012;25.464;2024-01-25T15:08:35;101713.43;;;-11.50;65.69
82512;BME280;72152;65.012;25.464;2024-01-25T15:11:33;101720.64;;;-11.48;65.17
82512;BME280;72152;65.012;25.464;2024-01-25T15:14:38;101722.17;;;-11.49;65.06
82512;BME280;72152;65.012;25.464;2024-01-25T15:17:40;101726.55;;;-11.53;64.89
82512;BME280;72152;65.012;25.464;2024-01-25T15:20:47;101730.46;;;-11.56;64.65
82512;BME280;72152;65.012;25.464;2024-01-25T15:23:57;101731.58;;;-11.59;64.69
82512;BME280;72152;65.012;25.464;2024-01-25T15:26:59;101740.48;;;-11.62;64.08
82512;BME280;72152;65.012;25.464;2024-01-25T15:29:55;101746.02;;;-11.64;64.36
82512;BME280;72152;65.012;25.464;2024-01-25T15:33:07;101750.41;;;-11.66;64.19
82512;BME280;72152;65.012;25.464;2024-01-25T15:36:13;101750.79;;;-11.69;64.42
82512;BME280;72152;65.012;25.464;2024-01-25T15:39:19;101748.23;;;-11.72;64.54
82512;BME280;72152;65.012;25.464;2024-01-25T15:42:26;101755.07;;;-11.75;64.20
82512;BME280;72152;65.012;25.464;2024-01-25T15:45:27;101751.70;;;-11.77;64.72
82512;BME280;72152;65.012;25.464;2024-01-25T15:48:34;101752.73;;;-11.78;64.52
82512;BME280;72152;65.012;25.464;2024-01-25T15:51:39;101752.75;;;-11.78;64.38
82512;BME280;72152;65.012;25.464;2024-01-25T15:54:38;101760.38;;;-11.78;64.07
82512;BME280;72152;65.012;25.464;2024-01-25T15:57:43;101755.32;;;-11.76;64.51